GIA867 VTBS-WIII
Flight info
| Callsign | GIA867 |
|---|---|
| Flight time | N/A |
| Altitude | 37000 |
| Route | BUT1K BUT Y11 PASVA Y514 NUFFA DCT BIKTA B469 VMR B338 ANITO B470 BUNIK DCT |
| Aircraft | A339/H-SADE1E2E3GHIJ3J5M1P2RWXY/LB2D1 |
Departure
| Time | N/A |
|---|---|
| Airport | Suvarnabhumi Airport (VTBS) |
Arrival
| Time | 2026-05-01 07:41 |
|---|---|
| Airport | Soekarno-Hatta International Airport (WIII) |
| Time | Latitude | Longitude | Altitude | Speed | Heading |
|---|---|---|---|---|---|
| 2026-05-01 07:23 | -5.16731 | 106.13090 | 14638 ft | 342 kts | 162° |
| 2026-05-01 07:23 | -5.21326 | 106.14458 | 13951 ft | 339 kts | 162° |
| 2026-05-01 07:24 | -5.23593 | 106.15130 | 13630 ft | 338 kts | 162° |
| 2026-05-01 07:24 | -5.25839 | 106.15799 | 13309 ft | 336 kts | 162° |
| 2026-05-01 07:24 | -5.28079 | 106.16464 | 12984 ft | 335 kts | 162° |
| 2026-05-01 07:24 | -5.30342 | 106.17137 | 12661 ft | 333 kts | 162° |
| 2026-05-01 07:25 | -5.32559 | 106.17796 | 12359 ft | 331 kts | 162° |
| 2026-05-01 07:25 | -5.34779 | 106.18456 | 12051 ft | 329 kts | 162° |
| 2026-05-01 07:25 | -5.36978 | 106.19111 | 11737 ft | 327 kts | 162° |
| 2026-05-01 07:25 | -5.39162 | 106.19762 | 11428 ft | 325 kts | 163° |
| 2026-05-01 07:26 | -5.41321 | 106.20403 | 11138 ft | 322 kts | 163° |
| 2026-05-01 07:26 | -5.43455 | 106.21038 | 10842 ft | 320 kts | 163° |
| 2026-05-01 07:26 | -5.45615 | 106.21680 | 10546 ft | 318 kts | 163° |
| 2026-05-01 07:26 | -5.47729 | 106.22309 | 10260 ft | 315 kts | 163° |
| 2026-05-01 07:27 | -5.49837 | 106.22936 | 10043 ft | 310 kts | 163° |
| 2026-05-01 07:27 | -5.51852 | 106.23535 | 10029 ft | 298 kts | 163° |
| 2026-05-01 07:27 | -5.53812 | 106.24117 | 10019 ft | 286 kts | 163° |
| 2026-05-01 07:27 | -5.55710 | 106.24680 | 9863 ft | 280 kts | 163° |
| 2026-05-01 07:28 | -5.57596 | 106.25241 | 9559 ft | 281 kts | 163° |
| 2026-05-01 07:28 | -5.59464 | 106.25797 | 9274 ft | 280 kts | 163° |
| 2026-05-01 07:28 | -5.61363 | 106.26361 | 8996 ft | 279 kts | 163° |
| 2026-05-01 07:28 | -5.63208 | 106.26910 | 8727 ft | 278 kts | 163° |
| 2026-05-01 07:29 | -5.65087 | 106.27470 | 8444 ft | 278 kts | 163° |
| 2026-05-01 07:29 | -5.66948 | 106.28024 | 8182 ft | 277 kts | 163° |
| 2026-05-01 07:29 | -5.68782 | 106.28571 | 7906 ft | 276 kts | 163° |
| 2026-05-01 07:29 | -5.70645 | 106.29125 | 7617 ft | 276 kts | 163° |
| 2026-05-01 07:30 | -5.72508 | 106.29680 | 7342 ft | 276 kts | 163° |
| 2026-05-01 07:30 | -5.74336 | 106.30224 | 7068 ft | 275 kts | 163° |
| 2026-05-01 07:30 | -5.76192 | 106.30777 | 6794 ft | 275 kts | 163° |
| 2026-05-01 07:30 | -5.78028 | 106.31324 | 6514 ft | 274 kts | 163° |
| 2026-05-01 07:31 | -5.79883 | 106.31877 | 6230 ft | 274 kts | 163° |
| 2026-05-01 07:31 | -5.85388 | 106.33518 | 5416 ft | 274 kts | 163° |
| 2026-05-01 07:32 | -5.89041 | 106.34607 | 4885 ft | 273 kts | 163° |
| 2026-05-01 07:32 | -5.90857 | 106.35149 | 4613 ft | 273 kts | 163° |
| 2026-05-01 07:33 | -5.94515 | 106.36240 | 4065 ft | 273 kts | 163° |
| 2026-05-01 07:33 | -5.96338 | 106.36784 | 3796 ft | 273 kts | 163° |
| 2026-05-01 07:33 | -5.99999 | 106.37876 | 3260 ft | 273 kts | 163° |
| 2026-05-01 07:34 | -6.01831 | 106.38422 | 3029 ft | 271 kts | 163° |
| 2026-05-01 07:34 | -6.05337 | 106.39467 | 2980 ft | 251 kts | 163° |
| 2026-05-01 07:34 | -6.06997 | 106.39961 | 2979 ft | 241 kts | 163° |
| 2026-05-01 07:35 | -6.08581 | 106.40432 | 2979 ft | 231 kts | 163° |
| 2026-05-01 07:35 | -6.10104 | 106.40885 | 2984 ft | 225 kts | 163° |
| 2026-05-01 07:35 | -6.11606 | 106.41331 | 2987 ft | 225 kts | 163° |
| 2026-05-01 07:35 | -6.13111 | 106.41781 | 2987 ft | 226 kts | 163° |
| 2026-05-01 07:36 | -6.14638 | 106.42236 | 2988 ft | 225 kts | 163° |
| 2026-05-01 07:36 | -6.16134 | 106.42683 | 2990 ft | 225 kts | 163° |
| 2026-05-01 07:36 | -6.17581 | 106.43293 | 2970 ft | 224 kts | 139° |
| 2026-05-01 07:36 | -6.18373 | 106.44625 | 2976 ft | 226 kts | 98° |
| 2026-05-01 07:37 | -6.18258 | 106.47774 | 2987 ft | 222 kts | 81° |
| 2026-05-01 07:37 | -6.17898 | 106.49254 | 2903 ft | 216 kts | 73° |
| 2026-05-01 07:37 | -6.17393 | 106.50663 | 2668 ft | 217 kts | 69° |
| 2026-05-01 07:38 | -6.16823 | 106.52078 | 2388 ft | 217 kts | 68° |
| 2026-05-01 07:38 | -6.16255 | 106.53469 | 2103 ft | 213 kts | 67° |
| 2026-05-01 07:38 | -6.15191 | 106.56130 | 1581 ft | 196 kts | 67° |
| 2026-05-01 07:39 | -6.14697 | 106.57377 | 1346 ft | 188 kts | 67° |
| 2026-05-01 07:39 | -6.14220 | 106.58576 | 1115 ft | 181 kts | 67° |
| 2026-05-01 07:39 | -6.13316 | 106.60841 | 681 ft | 168 kts | 65° |
| 2026-05-01 07:40 | -6.12886 | 106.61906 | 475 ft | 163 kts | 65° |
| 2026-05-01 07:40 | -6.12483 | 106.62956 | 259 ft | 158 kts | 65° |
| 2026-05-01 07:40 | -6.12075 | 106.63952 | 96 ft | 150 kts | 65° |
| 2026-05-01 07:40 | -6.11713 | 106.64883 | 56 ft | 134 kts | 62° |
| 2026-05-01 07:41 | -6.11411 | 106.65591 | 55 ft | 84 kts | 69° |
| 2026-05-01 07:41 | -6.11228 | 106.66067 | 55 ft | 60 kts | 70° |
| 2026-05-01 07:41 | -6.11023 | 106.66578 | 55 ft | 33 kts | 68° |
| 2026-05-01 07:42 | -6.10991 | 106.66774 | 55 ft | 18 kts | 124° |
| 2026-05-01 07:42 | -6.11104 | 106.66825 | 55 ft | 18 kts | 161° |
| 2026-05-01 07:42 | -6.11225 | 106.66869 | 55 ft | 18 kts | 159° |
| 2026-05-01 07:42 | -6.11344 | 106.66916 | 55 ft | 18 kts | 159° |
| 2026-05-01 07:43 | -6.11438 | 106.66953 | 55 ft | 10 kts | 156° |
| 2026-05-01 07:43 | -6.11480 | 106.67004 | 55 ft | 8 kts | 91° |
| 2026-05-01 07:43 | -6.11469 | 106.67042 | 55 ft | 0 kts | 69° |